7G4 weather

Blue Knob Valley Airport
Newry, Pennsylvania, United States

Public forecast

Using degrees Fahrenheit for public forecast. Weather courtesy of forecast.io.

METAR (pilot weather report)

Closest report is Altoona Blair County Airport, 8.6 nm (15.8 km) SE. Retrieved 2019/05/20 23:53 UTC (58 minutes ago):

KAOO 202353Z AUTO 29012KT 10SM CLR 21/09 A2989 RMK AO2 PK WND 30026/2330 SLP112 T02060094 10256 20206 53008

TAF (pilot weather forecast)

Closest forecast is Altoona Blair County Airport, 8.6 nm (15.8 km) SE. Retrieved 2019/05/21 00:00 UTC (51 minutes ago):

TAF KAOO 202357Z 2100/2124 29012KT P6SM SKC FM210200 31011KT P6SM BKN035 FM211500 34011G18KT P6SM SKC